sensor_id;sensor_type;location;lat;lon;timestamp;temperature;humidity
6252;DHT22;3159;52.414;9.784;2023-12-14T00:00:39;6.90;99.90
6252;DHT22;3159;52.414;9.784;2023-12-14T00:03:06;6.90;99.90
6252;DHT22;3159;52.414;9.784;2023-12-14T00:05:33;6.80;99.90
6252;DHT22;3159;52.414;9.784;2023-12-14T00:08:02;6.90;99.90
6252;DHT22;3159;52.414;9.784;2023-12-14T00:10:29;6.90;99.90
6252;DHT22;3159;52.414;9.784;2023-12-14T00:12:56;6.70;99.90
6252;DHT22;3159;52.414;9.784;2023-12-14T00:15:22;6.80;99.90
6252;DHT22;3159;52.414;9.784;2023-12-14T00:17:49;6.70;99.90
6252;DHT22;3159;52.414;9.784;2023-12-14T00:20:16;6.60;99.90
6252;DHT22;3159;52.414;9.784;2023-12-14T00:22:43;6.70;99.90
6252;DHT22;3159;52.414;9.784;2023-12-14T00:25:11;6.70;99.90
6252;DHT22;3159;52.414;9.784;2023-12-14T00:27:38;6.70;99.90
6252;DHT22;3159;52.414;9.784;2023-12-14T00:30:06;6.80;99.90
6252;DHT22;3159;52.414;9.784;2023-12-14T00:32:33;6.70;99.90
6252;DHT22;3159;52.414;9.784;2023-12-14T00:35:00;6.80;99.90
6252;DHT22;3159;52.414;9.784;2023-12-14T00:37:27;6.80;99.90
6252;DHT22;3159;52.414;9.784;2023-12-14T00:39:54;6.80;99.90
6252;DHT22;3159;52.414;9.784;2023-12-14T00:42:22;6.90;99.90
6252;DHT22;3159;52.414;9.784;2023-12-14T00:44:49;7.00;99.90
6252;DHT22;3159;52.414;9.784;2023-12-14T00:47:16;7.00;99.90
6252;DHT22;3159;52.414;9.784;2023-12-14T00:49:43;6.90;99.90
6252;DHT22;3159;52.414;9.784;2023-12-14T00:52:10;7.00;99.90
6252;DHT22;3159;52.414;9.784;2023-12-14T00:54:36;7.00;99.90
6252;DHT22;3159;52.414;9.784;2023-12-14T00:57:04;7.00;99.90
6252;DHT22;3159;52.414;9.784;2023-12-14T00:59:32;7.00;99.90
6252;DHT22;3159;52.414;9.784;2023-12-14T01:01:59;7.00;99.90
6252;DHT22;3159;52.414;9.784;2023-12-14T01:04:25;7.00;99.90
6252;DHT22;3159;52.414;9.784;2023-12-14T01:06:52;7.00;99.90
6252;DHT22;3159;52.414;9.784;2023-12-14T01:09:19;7.10;99.90
6252;DHT22;3159;52.414;9.784;2023-12-14T01:11:46;7.00;99.90
6252;DHT22;3159;52.414;9.784;2023-12-14T01:14:13;6.90;99.90
6252;DHT22;3159;52.414;9.784;2023-12-14T01:16:41;7.00;99.90
6252;DHT22;3159;52.414;9.784;2023-12-14T01:19:08;6.90;99.90
6252;DHT22;3159;52.414;9.784;2023-12-14T01:21:34;6.90;99.90
6252;DHT22;3159;52.414;9.784;2023-12-14T01:24:01;6.90;99.90
6252;DHT22;3159;52.414;9.784;2023-12-14T01:26:28;6.90;99.90
6252;DHT22;3159;52.414;9.784;2023-12-14T01:28:55;6.80;99.90
6252;DHT22;3159;52.414;9.784;2023-12-14T01:31:22;6.80;99.90
6252;DHT22;3159;52.414;9.784;2023-12-14T01:33:51;6.90;99.90
6252;DHT22;3159;52.414;9.784;2023-12-14T01:36:20;6.80;99.90
6252;DHT22;3159;52.414;9.784;2023-12-14T01:38:48;6.70;99.90
6252;DHT22;3159;52.414;9.784;2023-12-14T01:41:14;6.80;99.90
6252;DHT22;3159;52.414;9.784;2023-12-14T01:43:41;6.60;99.90
6252;DHT22;3159;52.414;9.784;2023-12-14T01:46:09;6.70;99.90
6252;DHT22;3159;52.414;9.784;2023-12-14T01:48:36;6.70;99.90
6252;DHT22;3159;52.414;9.784;2023-12-14T01:51:04;6.60;99.90
6252;DHT22;3159;52.414;9.784;2023-12-14T01:53:31;6.60;99.90
6252;DHT22;3159;52.414;9.784;2023-12-14T01:55:58;6.70;99.90
6252;DHT22;3159;52.414;9.784;2023-12-14T01:58:25;6.70;99.90
6252;DHT22;3159;52.414;9.784;2023-12-14T02:00:56;6.70;99.90
6252;DHT22;3159;52.414;9.784;2023-12-14T02:03:25;6.60;99.90
6252;DHT22;3159;52.414;9.784;2023-12-14T02:05:52;6.60;99.90
6252;DHT22;3159;52.414;9.784;2023-12-14T02:08:20;6.70;99.90
6252;DHT22;3159;52.414;9.784;2023-12-14T02:10:47;6.60;99.90
6252;DHT22;3159;52.414;9.784;2023-12-14T02:13:14;6.70;99.90
6252;DHT22;3159;52.414;9.784;2023-12-14T02:15:41;6.70;99.90
6252;DHT22;3159;52.414;9.784;2023-12-14T02:18:08;6.80;99.90
6252;DHT22;3159;52.414;9.784;2023-12-14T02:20:35;6.60;99.90
6252;DHT22;3159;52.414;9.784;2023-12-14T02:23:03;6.70;99.90
6252;DHT22;3159;52.414;9.784;2023-12-14T02:25:30;6.50;99.90
6252;DHT22;3159;52.414;9.784;2023-12-14T02:27:56;6.50;99.90
6252;DHT22;3159;52.414;9.784;2023-12-14T02:30:23;6.50;99.90
6252;DHT22;3159;52.414;9.784;2023-12-14T02:32:50;6.50;99.90
6252;DHT22;3159;52.414;9.784;2023-12-14T02:35:17;6.50;99.90
6252;DHT22;3159;52.414;9.784;2023-12-14T02:37:44;6.50;99.90
6252;DHT22;3159;52.414;9.784;2023-12-14T02:40:13;6.50;99.90
6252;DHT22;3159;52.414;9.784;2023-12-14T02:42:40;6.60;99.90
6252;DHT22;3159;52.414;9.784;2023-12-14T02:45:08;6.60;99.90
6252;DHT22;3159;52.414;9.784;2023-12-14T02:47:35;6.50;99.90
6252;DHT22;3159;52.414;9.784;2023-12-14T02:50:02;6.50;99.90
6252;DHT22;3159;52.414;9.784;2023-12-14T02:52:29;6.40;99.90
6252;DHT22;3159;52.414;9.784;2023-12-14T02:54:55;6.40;99.90
6252;DHT22;3159;52.414;9.784;2023-12-14T02:57:24;6.40;99.90
6252;DHT22;3159;52.414;9.784;2023-12-14T02:59:50;6.40;99.90
6252;DHT22;3159;52.414;9.784;2023-12-14T03:02:17;6.40;99.90
6252;DHT22;3159;52.414;9.784;2023-12-14T03:04:44;6.50;99.90
6252;DHT22;3159;52.414;9.784;2023-12-14T03:07:11;6.30;99.90
6252;DHT22;3159;52.414;9.784;2023-12-14T03:09:39;6.30;99.90
6252;DHT22;3159;52.414;9.784;2023-12-14T03:12:09;6.50;99.90
6252;DHT22;3159;52.414;9.784;2023-12-14T03:14:37;6.50;99.90
6252;DHT22;3159;52.414;9.784;2023-12-14T03:17:03;6.30;99.90
6252;DHT22;3159;52.414;9.784;2023-12-14T03:19:31;6.30;99.90
6252;DHT22;3159;52.414;9.784;2023-12-14T03:21:57;6.40;99.90
6252;DHT22;3159;52.414;9.784;2023-12-14T03:24:24;6.40;99.90
6252;DHT22;3159;52.414;9.784;2023-12-14T03:26:51;6.50;99.90
6252;DHT22;3159;52.414;9.784;2023-12-14T03:29:18;6.40;99.90
6252;DHT22;3159;52.414;9.784;2023-12-14T03:31:48;6.40;99.90
6252;DHT22;3159;52.414;9.784;2023-12-14T03:34:14;6.50;99.90
6252;DHT22;3159;52.414;9.784;2023-12-14T03:36:41;6.60;99.90
6252;DHT22;3159;52.414;9.784;2023-12-14T03:39:08;6.50;99.90
6252;DHT22;3159;52.414;9.784;2023-12-14T03:41:35;6.40;99.90
6252;DHT22;3159;52.414;9.784;2023-12-14T03:44:02;6.40;99.90
6252;DHT22;3159;52.414;9.784;2023-12-14T03:46:29;6.40;99.90
6252;DHT22;3159;52.414;9.784;2023-12-14T03:48:57;6.50;99.90
6252;DHT22;3159;52.414;9.784;2023-12-14T03:51:24;6.40;99.90
6252;DHT22;3159;52.414;9.784;2023-12-14T03:53:51;6.30;99.90
6252;DHT22;3159;52.414;9.784;2023-12-14T03:56:18;6.40;99.90
6252;DHT22;3159;52.414;9.784;2023-12-14T03:58:45;6.50;99.90
6252;DHT22;3159;52.414;9.784;2023-12-14T04:01:16;6.50;99.90
6252;DHT22;3159;52.414;9.784;2023-12-14T04:03:43;6.50;99.90
6252;DHT22;3159;52.414;9.784;2023-12-14T04:06:13;6.60;99.90
6252;DHT22;3159;52.414;9.784;2023-12-14T04:08:40;6.30;99.90
6252;DHT22;3159;52.414;9.784;2023-12-14T04:11:07;6.30;99.90
6252;DHT22;3159;52.414;9.784;2023-12-14T04:13:34;6.40;99.90
6252;DHT22;3159;52.414;9.784;2023-12-14T04:16:02;6.30;99.90
6252;DHT22;3159;52.414;9.784;2023-12-14T04:18:29;6.40;99.90
6252;DHT22;3159;52.414;9.784;2023-12-14T04:20:56;6.40;99.90
6252;DHT22;3159;52.414;9.784;2023-12-14T04:23:24;6.20;99.90
6252;DHT22;3159;52.414;9.784;2023-12-14T04:25:52;6.10;99.90
6252;DHT22;3159;52.414;9.784;2023-12-14T04:28:19;6.00;99.90
6252;DHT22;3159;52.414;9.784;2023-12-14T04:30:46;6.10;99.90
6252;DHT22;3159;52.414;9.784;2023-12-14T04:33:13;6.20;99.90
6252;DHT22;3159;52.414;9.784;2023-12-14T04:35:40;6.40;99.90
6252;DHT22;3159;52.414;9.784;2023-12-14T04:38:07;6.40;99.90
6252;DHT22;3159;52.414;9.784;2023-12-14T04:40:35;6.20;99.90
6252;DHT22;3159;52.414;9.784;2023-12-14T04:43:02;6.20;99.90
6252;DHT22;3159;52.414;9.784;2023-12-14T04:45:29;6.20;99.90
6252;DHT22;3159;52.414;9.784;2023-12-14T04:47:55;6.30;99.90
6252;DHT22;3159;52.414;9.784;2023-12-14T04:50:22;6.30;99.90
6252;DHT22;3159;52.414;9.784;2023-12-14T04:52:49;6.30;99.90
6252;DHT22;3159;52.414;9.784;2023-12-14T04:55:16;6.30;99.90
6252;DHT22;3159;52.414;9.784;2023-12-14T04:57:44;6.30;99.90
6252;DHT22;3159;52.414;9.784;2023-12-14T05:00:15;6.40;99.90
6252;DHT22;3159;52.414;9.784;2023-12-14T05:02:45;6.40;99.90
6252;DHT22;3159;52.414;9.784;2023-12-14T05:05:13;6.40;99.90
6252;DHT22;3159;52.414;9.784;2023-12-14T05:07:40;6.30;99.90
6252;DHT22;3159;52.414;9.784;2023-12-14T05:10:07;6.30;99.90
6252;DHT22;3159;52.414;9.784;2023-12-14T05:12:35;6.30;99.90
6252;DHT22;3159;52.414;9.784;2023-12-14T05:15:04;6.30;99.90
6252;DHT22;3159;52.414;9.784;2023-12-14T05:17:31;6.30;99.90
6252;DHT22;3159;52.414;9.784;2023-12-14T05:19:58;6.30;99.90
6252;DHT22;3159;52.414;9.784;2023-12-14T05:22:25;6.30;99.90
6252;DHT22;3159;52.414;9.784;2023-12-14T05:24:52;6.30;99.90
6252;DHT22;3159;52.414;9.784;2023-12-14T05:27:19;6.30;99.90
6252;DHT22;3159;52.414;9.784;2023-12-14T05:29:46;6.30;99.90
6252;DHT22;3159;52.414;9.784;2023-12-14T05:32:14;6.40;99.90
6252;DHT22;3159;52.414;9.784;2023-12-14T05:34:41;6.50;99.90
6252;DHT22;3159;52.414;9.784;2023-12-14T05:37:07;6.40;99.90
6252;DHT22;3159;52.414;9.784;2023-12-14T05:39:34;6.40;99.90
6252;DHT22;3159;52.414;9.784;2023-12-14T05:42:01;6.50;99.90
6252;DHT22;3159;52.414;9.784;2023-12-14T05:44:28;6.40;99.90
6252;DHT22;3159;52.414;9.784;2023-12-14T05:46:55;6.50;99.90
6252;DHT22;3159;52.414;9.784;2023-12-14T05:49:23;6.40;99.90
6252;DHT22;3159;52.414;9.784;2023-12-14T05:51:50;6.50;99.90
6252;DHT22;3159;52.414;9.784;2023-12-14T05:54:16;6.50;99.90
6252;DHT22;3159;52.414;9.784;2023-12-14T05:56:43;6.40;99.90
6252;DHT22;3159;52.414;9.784;2023-12-14T05:59:10;6.40;99.90
6252;DHT22;3159;52.414;9.784;2023-12-14T06:01:37;6.10;99.90
6252;DHT22;3159;52.414;9.784;2023-12-14T06:04:03;6.10;99.90
6252;DHT22;3159;52.414;9.784;2023-12-14T06:06:32;6.20;99.90
6252;DHT22;3159;52.414;9.784;2023-12-14T06:08:58;6.30;99.90
6252;DHT22;3159;52.414;9.784;2023-12-14T06:11:25;6.40;99.90
6252;DHT22;3159;52.414;9.784;2023-12-14T06:13:52;6.30;99.90
6252;DHT22;3159;52.414;9.784;2023-12-14T06:16:19;6.40;99.90
6252;DHT22;3159;52.414;9.784;2023-12-14T06:18:46;6.30;99.90
6252;DHT22;3159;52.414;9.784;2023-12-14T06:21:12;6.30;99.90
6252;DHT22;3159;52.414;9.784;2023-12-14T06:23:41;6.30;99.90
6252;DHT22;3159;52.414;9.784;2023-12-14T06:26:07;6.30;99.90
6252;DHT22;3159;52.414;9.784;2023-12-14T06:28:34;6.40;99.90
6252;DHT22;3159;52.414;9.784;2023-12-14T06:31:01;6.40;99.90
6252;DHT22;3159;52.414;9.784;2023-12-14T06:33:28;6.40;99.90
6252;DHT22;3159;52.414;9.784;2023-12-14T06:35:55;6.40;99.90
6252;DHT22;3159;52.414;9.784;2023-12-14T06:38:21;6.40;99.90
6252;DHT22;3159;52.414;9.784;2023-12-14T06:40:50;6.40;99.90
6252;DHT22;3159;52.414;9.784;2023-12-14T06:43:16;6.40;99.90
6252;DHT22;3159;52.414;9.784;2023-12-14T06:45:43;6.40;99.90
6252;DHT22;3159;52.414;9.784;2023-12-14T06:48:10;6.40;99.90
6252;DHT22;3159;52.414;9.784;2023-12-14T06:50:37;6.40;99.90
6252;DHT22;3159;52.414;9.784;2023-12-14T06:53:04;6.40;99.90
6252;DHT22;3159;52.414;9.784;2023-12-14T06:55:31;6.50;99.90
6252;DHT22;3159;52.414;9.784;2023-12-14T06:57:59;6.50;99.90
6252;DHT22;3159;52.414;9.784;2023-12-14T07:00:26;6.50;99.90
6252;DHT22;3159;52.414;9.784;2023-12-14T07:02:53;6.40;99.90
6252;DHT22;3159;52.414;9.784;2023-12-14T07:05:19;6.40;99.90
6252;DHT22;3159;52.414;9.784;2023-12-14T07:07:46;6.40;99.90
6252;DHT22;3159;52.414;9.784;2023-12-14T07:10:14;6.40;99.90
6252;DHT22;3159;52.414;9.784;2023-12-14T07:12:40;6.40;99.90
6252;DHT22;3159;52.414;9.784;2023-12-14T07:15:09;6.40;99.90
6252;DHT22;3159;52.414;9.784;2023-12-14T07:17:36;6.40;99.90
6252;DHT22;3159;52.414;9.784;2023-12-14T07:20:03;6.30;99.90
6252;DHT22;3159;52.414;9.784;2023-12-14T07:22:31;6.30;99.90
6252;DHT22;3159;52.414;9.784;2023-12-14T07:24:58;6.40;99.90
6252;DHT22;3159;52.414;9.784;2023-12-14T07:27:25;6.30;99.90
6252;DHT22;3159;52.414;9.784;2023-12-14T07:29:52;6.10;99.90
6252;DHT22;3159;52.414;9.784;2023-12-14T07:32:20;6.20;99.90
6252;DHT22;3159;52.414;9.784;2023-12-14T07:34:47;6.20;99.90
6252;DHT22;3159;52.414;9.784;2023-12-14T07:37:14;6.20;99.90
6252;DHT22;3159;52.414;9.784;2023-12-14T07:39:40;6.20;99.90
6252;DHT22;3159;52.414;9.784;2023-12-14T07:42:07;6.30;99.90
6252;DHT22;3159;52.414;9.784;2023-12-14T07:44:34;6.40;99.90
6252;DHT22;3159;52.414;9.784;2023-12-14T07:47:01;6.40;99.90
6252;DHT22;3159;52.414;9.784;2023-12-14T07:49:29;6.30;99.90
6252;DHT22;3159;52.414;9.784;2023-12-14T07:51:56;6.30;99.90
6252;DHT22;3159;52.414;9.784;2023-12-14T07:54:23;6.20;99.90
6252;DHT22;3159;52.414;9.784;2023-12-14T07:56:52;6.30;99.90
6252;DHT22;3159;52.414;9.784;2023-12-14T07:59:19;6.30;99.90
6252;DHT22;3159;52.414;9.784;2023-12-14T08:01:46;6.40;99.90
6252;DHT22;3159;52.414;9.784;2023-12-14T08:04:14;6.30;99.90
6252;DHT22;3159;52.414;9.784;2023-12-14T08:06:42;6.10;99.90
6252;DHT22;3159;52.414;9.784;2023-12-14T08:09:09;6.20;99.90
6252;DHT22;3159;52.414;9.784;2023-12-14T08:11:36;6.20;99.90
6252;DHT22;3159;52.414;9.784;2023-12-14T08:14:03;6.10;99.90
6252;DHT22;3159;52.414;9.784;2023-12-14T08:16:29;6.20;99.90
6252;DHT22;3159;52.414;9.784;2023-12-14T08:18:56;6.20;99.90
6252;DHT22;3159;52.414;9.784;2023-12-14T08:21:24;6.10;99.90
6252;DHT22;3159;52.414;9.784;2023-12-14T08:23:52;6.00;99.90
6252;DHT22;3159;52.414;9.784;2023-12-14T08:26:18;6.00;99.90
6252;DHT22;3159;52.414;9.784;2023-12-14T08:28:45;5.90;99.90
6252;DHT22;3159;52.414;9.784;2023-12-14T08:31:12;5.90;99.90
6252;DHT22;3159;52.414;9.784;2023-12-14T08:33:41;6.00;99.90
6252;DHT22;3159;52.414;9.784;2023-12-14T08:36:08;6.20;99.90
6252;DHT22;3159;52.414;9.784;2023-12-14T08:38:35;6.10;99.90
6252;DHT22;3159;52.414;9.784;2023-12-14T08:41:03;6.00;99.90
6252;DHT22;3159;52.414;9.784;2023-12-14T08:43:30;5.80;99.90
6252;DHT22;3159;52.414;9.784;2023-12-14T08:45:57;5.90;99.90
6252;DHT22;3159;52.414;9.784;2023-12-14T08:48:24;6.00;99.90
6252;DHT22;3159;52.414;9.784;2023-12-14T08:50:53;5.90;99.90
6252;DHT22;3159;52.414;9.784;2023-12-14T08:53:20;5.90;99.90
6252;DHT22;3159;52.414;9.784;2023-12-14T08:55:47;6.10;99.90
6252;DHT22;3159;52.414;9.784;2023-12-14T08:58:15;5.80;99.90
6252;DHT22;3159;52.414;9.784;2023-12-14T09:00:41;5.40;99.90
6252;DHT22;3159;52.414;9.784;2023-12-14T09:03:08;5.60;99.90
6252;DHT22;3159;52.414;9.784;2023-12-14T09:05:35;5.80;99.90
6252;DHT22;3159;52.414;9.784;2023-12-14T09:08:02;5.70;99.90
6252;DHT22;3159;52.414;9.784;2023-12-14T09:10:29;5.80;99.90
6252;DHT22;3159;52.414;9.784;2023-12-14T09:12:56;5.80;99.90
6252;DHT22;3159;52.414;9.784;2023-12-14T09:15:24;5.80;99.90
6252;DHT22;3159;52.414;9.784;2023-12-14T09:17:51;5.80;99.90
6252;DHT22;3159;52.414;9.784;2023-12-14T09:20:18;6.00;99.90
6252;DHT22;3159;52.414;9.784;2023-12-14T09:22:45;6.10;99.90
6252;DHT22;3159;52.414;9.784;2023-12-14T09:25:12;6.10;99.90
6252;DHT22;3159;52.414;9.784;2023-12-14T09:27:39;6.00;99.90
6252;DHT22;3159;52.414;9.784;2023-12-14T09:30:07;5.80;99.90
6252;DHT22;3159;52.414;9.784;2023-12-14T09:32:35;5.90;99.90
6252;DHT22;3159;52.414;9.784;2023-12-14T09:35:02;6.00;99.90
6252;DHT22;3159;52.414;9.784;2023-12-14T09:37:29;6.10;99.90
6252;DHT22;3159;52.414;9.784;2023-12-14T09:39:56;6.20;99.90
6252;DHT22;3159;52.414;9.784;2023-12-14T09:42:23;5.80;99.90
6252;DHT22;3159;52.414;9.784;2023-12-14T09:44:50;5.90;99.90
6252;DHT22;3159;52.414;9.784;2023-12-14T09:47:17;6.10;99.90
6252;DHT22;3159;52.414;9.784;2023-12-14T09:49:45;6.00;99.90
6252;DHT22;3159;52.414;9.784;2023-12-14T09:52:14;6.10;99.90
6252;DHT22;3159;52.414;9.784;2023-12-14T09:54:40;6.10;99.90
6252;DHT22;3159;52.414;9.784;2023-12-14T09:57:07;6.10;99.90
6252;DHT22;3159;52.414;9.784;2023-12-14T09:59:34;5.90;99.90
6252;DHT22;3159;52.414;9.784;2023-12-14T10:02:09;5.90;99.90
6252;DHT22;3159;52.414;9.784;2023-12-14T10:04:37;5.80;99.90
6252;DHT22;3159;52.414;9.784;2023-12-14T10:07:05;5.80;99.90
6252;DHT22;3159;52.414;9.784;2023-12-14T10:09:33;6.00;99.90
6252;DHT22;3159;52.414;9.784;2023-12-14T10:12:05;5.90;99.90
6252;DHT22;3159;52.414;9.784;2023-12-14T10:14:32;5.90;99.90
6252;DHT22;3159;52.414;9.784;2023-12-14T10:17:14;6.00;99.90
6252;DHT22;3159;52.414;9.784;2023-12-14T10:19:42;5.90;99.90
6252;DHT22;3159;52.414;9.784;2023-12-14T10:22:11;5.90;99.90
6252;DHT22;3159;52.414;9.784;2023-12-14T10:24:38;5.80;99.90
6252;DHT22;3159;52.414;9.784;2023-12-14T10:27:06;5.60;99.90
6252;DHT22;3159;52.414;9.784;2023-12-14T10:29:33;5.80;99.90
6252;DHT22;3159;52.414;9.784;2023-12-14T10:32:02;5.80;99.90
6252;DHT22;3159;52.414;9.784;2023-12-14T10:34:32;5.80;99.90
6252;DHT22;3159;52.414;9.784;2023-12-14T10:36:59;5.80;99.90
6252;DHT22;3159;52.414;9.784;2023-12-14T10:39:29;5.70;99.90
6252;DHT22;3159;52.414;9.784;2023-12-14T10:41:57;5.60;99.90
6252;DHT22;3159;52.414;9.784;2023-12-14T10:44:26;5.70;99.90
6252;DHT22;3159;52.414;9.784;2023-12-14T10:46:55;5.70;99.90
6252;DHT22;3159;52.414;9.784;2023-12-14T10:49:23;5.90;99.90
6252;DHT22;3159;52.414;9.784;2023-12-14T10:51:52;5.90;99.90
6252;DHT22;3159;52.414;9.784;2023-12-14T10:54:20;5.90;99.90
6252;DHT22;3159;52.414;9.784;2023-12-14T10:56:49;6.10;99.90
6252;DHT22;3159;52.414;9.784;2023-12-14T10:59:15;6.00;99.90
6252;DHT22;3159;52.414;9.784;2023-12-14T11:01:43;6.00;99.90
6252;DHT22;3159;52.414;9.784;2023-12-14T11:04:10;6.00;99.90
6252;DHT22;3159;52.414;9.784;2023-12-14T11:06:40;6.00;99.90
6252;DHT22;3159;52.414;9.784;2023-12-14T11:09:12;5.90;99.90
6252;DHT22;3159;52.414;9.784;2023-12-14T11:11:41;6.00;99.90
6252;DHT22;3159;52.414;9.784;2023-12-14T11:14:12;6.10;99.90
6252;DHT22;3159;52.414;9.784;2023-12-14T11:16:39;6.00;99.90
6252;DHT22;3159;52.414;9.784;2023-12-14T11:19:30;6.00;99.90
6252;DHT22;3159;52.414;9.784;2023-12-14T11:22:11;6.00;99.90
6252;DHT22;3159;52.414;9.784;2023-12-14T11:24:41;5.90;99.90
6252;DHT22;3159;52.414;9.784;2023-12-14T11:27:09;5.80;99.90
6252;DHT22;3159;52.414;9.784;2023-12-14T11:29:37;5.80;99.90
6252;DHT22;3159;52.414;9.784;2023-12-14T11:32:06;5.80;99.90
6252;DHT22;3159;52.414;9.784;2023-12-14T11:34:33;5.70;99.90
6252;DHT22;3159;52.414;9.784;2023-12-14T11:37:00;5.70;99.90
6252;DHT22;3159;52.414;9.784;2023-12-14T11:39:30;5.50;99.90
6252;DHT22;3159;52.414;9.784;2023-12-14T11:42:00;5.70;99.90
6252;DHT22;3159;52.414;9.784;2023-12-14T11:44:27;5.80;99.90
6252;DHT22;3159;52.414;9.784;2023-12-14T11:46:56;5.70;99.90
6252;DHT22;3159;52.414;9.784;2023-12-14T11:49:24;5.70;99.90
6252;DHT22;3159;52.414;9.784;2023-12-14T11:51:52;5.70;99.90
6252;DHT22;3159;52.414;9.784;2023-12-14T11:54:19;5.80;99.90
6252;DHT22;3159;52.414;9.784;2023-12-14T11:56:46;6.00;99.90
6252;DHT22;3159;52.414;9.784;2023-12-14T11:59:15;5.90;99.90
6252;DHT22;3159;52.414;9.784;2023-12-14T12:01:55;5.90;99.90
6252;DHT22;3159;52.414;9.784;2023-12-14T12:04:23;5.90;99.90
6252;DHT22;3159;52.414;9.784;2023-12-14T12:06:58;6.00;99.90
6252;DHT22;3159;52.414;9.784;2023-12-14T12:09:37;6.00;99.90
6252;DHT22;3159;52.414;9.784;2023-12-14T12:12:08;6.10;99.90
6252;DHT22;3159;52.414;9.784;2023-12-14T12:14:35;6.10;99.90
6252;DHT22;3159;52.414;9.784;2023-12-14T12:17:04;6.00;99.90
6252;DHT22;3159;52.414;9.784;2023-12-14T12:19:32;6.00;99.90
6252;DHT22;3159;52.414;9.784;2023-12-14T12:21:59;6.10;99.90
6252;DHT22;3159;52.414;9.784;2023-12-14T12:24:26;5.90;99.90
6252;DHT22;3159;52.414;9.784;2023-12-14T12:26:53;5.90;99.90
6252;DHT22;3159;52.414;9.784;2023-12-14T12:29:20;6.10;99.90
6252;DHT22;3159;52.414;9.784;2023-12-14T12:31:47;6.00;99.90
6252;DHT22;3159;52.414;9.784;2023-12-14T12:34:15;6.00;99.90
6252;DHT22;3159;52.414;9.784;2023-12-14T12:36:42;5.90;99.90
6252;DHT22;3159;52.414;9.784;2023-12-14T12:39:09;5.90;99.90
6252;DHT22;3159;52.414;9.784;2023-12-14T12:41:37;6.20;99.90
6252;DHT22;3159;52.414;9.784;2023-12-14T12:44:04;6.20;99.90
6252;DHT22;3159;52.414;9.784;2023-12-14T12:46:32;6.20;99.90
6252;DHT22;3159;52.414;9.784;2023-12-14T12:49:00;6.20;99.90
6252;DHT22;3159;52.414;9.784;2023-12-14T12:51:29;6.20;99.90
6252;DHT22;3159;52.414;9.784;2023-12-14T12:53:57;6.20;99.90
6252;DHT22;3159;52.414;9.784;2023-12-14T12:56:25;6.10;99.90
6252;DHT22;3159;52.414;9.784;2023-12-14T12:58:52;6.20;99.90
6252;DHT22;3159;52.414;9.784;2023-12-14T13:01:19;6.30;99.90
6252;DHT22;3159;52.414;9.784;2023-12-14T13:03:51;6.30;99.90
6252;DHT22;3159;52.414;9.784;2023-12-14T13:06:18;6.10;99.90
6252;DHT22;3159;52.414;9.784;2023-12-14T13:08:46;6.00;99.90
6252;DHT22;3159;52.414;9.784;2023-12-14T13:11:13;6.10;99.90
6252;DHT22;3159;52.414;9.784;2023-12-14T13:13:40;6.20;99.90
6252;DHT22;3159;52.414;9.784;2023-12-14T13:16:07;6.10;99.90
6252;DHT22;3159;52.414;9.784;2023-12-14T13:18:34;6.20;99.90
6252;DHT22;3159;52.414;9.784;2023-12-14T13:21:01;6.30;99.90
6252;DHT22;3159;52.414;9.784;2023-12-14T13:23:27;6.30;99.90
6252;DHT22;3159;52.414;9.784;2023-12-14T13:25:56;6.10;99.90
6252;DHT22;3159;52.414;9.784;2023-12-14T13:28:22;6.00;99.90
6252;DHT22;3159;52.414;9.784;2023-12-14T13:30:50;6.00;99.90
6252;DHT22;3159;52.414;9.784;2023-12-14T13:33:16;6.00;99.90
6252;DHT22;3159;52.414;9.784;2023-12-14T13:35:43;6.00;99.90
6252;DHT22;3159;52.414;9.784;2023-12-14T13:38:10;6.00;99.90
6252;DHT22;3159;52.414;9.784;2023-12-14T13:40:37;5.90;99.90
6252;DHT22;3159;52.414;9.784;2023-12-14T13:43:05;6.00;99.90
6252;DHT22;3159;52.414;9.784;2023-12-14T13:45:36;6.10;99.90
6252;DHT22;3159;52.414;9.784;2023-12-14T13:48:03;6.10;99.90
6252;DHT22;3159;52.414;9.784;2023-12-14T13:50:30;6.00;99.90
6252;DHT22;3159;52.414;9.784;2023-12-14T13:52:57;6.10;99.90
6252;DHT22;3159;52.414;9.784;2023-12-14T13:55:24;6.00;99.90
6252;DHT22;3159;52.414;9.784;2023-12-14T13:57:50;5.80;99.90
6252;DHT22;3159;52.414;9.784;2023-12-14T14:00:19;5.90;99.90
6252;DHT22;3159;52.414;9.784;2023-12-14T14:02:47;5.90;99.90
6252;DHT22;3159;52.414;9.784;2023-12-14T14:05:14;6.00;99.90
6252;DHT22;3159;52.414;9.784;2023-12-14T14:07:41;6.00;99.90
6252;DHT22;3159;52.414;9.784;2023-12-14T14:10:08;6.00;99.90
6252;DHT22;3159;52.414;9.784;2023-12-14T14:12:35;6.00;99.90
6252;DHT22;3159;52.414;9.784;2023-12-14T14:15:02;5.70;99.90
6252;DHT22;3159;52.414;9.784;2023-12-14T14:17:31;5.80;99.90
6252;DHT22;3159;52.414;9.784;2023-12-14T14:19:58;6.00;99.90
6252;DHT22;3159;52.414;9.784;2023-12-14T14:22:24;6.00;99.90
6252;DHT22;3159;52.414;9.784;2023-12-14T14:24:51;6.00;99.90
6252;DHT22;3159;52.414;9.784;2023-12-14T14:27:18;5.80;99.90
6252;DHT22;3159;52.414;9.784;2023-12-14T14:29:45;5.90;99.90
6252;DHT22;3159;52.414;9.784;2023-12-14T14:32:12;6.00;99.90
6252;DHT22;3159;52.414;9.784;2023-12-14T14:34:40;6.00;99.90
6252;DHT22;3159;52.414;9.784;2023-12-14T14:37:07;6.00;99.90
6252;DHT22;3159;52.414;9.784;2023-12-14T14:39:34;6.00;99.90
6252;DHT22;3159;52.414;9.784;2023-12-14T14:42:03;6.00;99.90
6252;DHT22;3159;52.414;9.784;2023-12-14T14:44:30;6.00;99.90
6252;DHT22;3159;52.414;9.784;2023-12-14T14:46:57;6.20;99.90
6252;DHT22;3159;52.414;9.784;2023-12-14T14:49:24;6.20;99.90
6252;DHT22;3159;52.414;9.784;2023-12-14T14:51:53;6.40;99.90
6252;DHT22;3159;52.414;9.784;2023-12-14T14:54:19;6.20;99.90
6252;DHT22;3159;52.414;9.784;2023-12-14T14:56:46;6.30;99.90
6252;DHT22;3159;52.414;9.784;2023-12-14T14:59:13;6.40;99.90
6252;DHT22;3159;52.414;9.784;2023-12-14T15:01:41;6.50;99.90
6252;DHT22;3159;52.414;9.784;2023-12-14T15:04:08;6.40;99.90
6252;DHT22;3159;52.414;9.784;2023-12-14T15:06:35;6.40;99.90
6252;DHT22;3159;52.414;9.784;2023-12-14T15:09:05;6.40;99.90
6252;DHT22;3159;52.414;9.784;2023-12-14T15:11:33;6.40;99.90
6252;DHT22;3159;52.414;9.784;2023-12-14T15:14:00;6.50;99.90
6252;DHT22;3159;52.414;9.784;2023-12-14T15:16:26;6.50;99.90
6252;DHT22;3159;52.414;9.784;2023-12-14T15:18:53;6.50;99.90
6252;DHT22;3159;52.414;9.784;2023-12-14T15:21:20;6.30;99.90
6252;DHT22;3159;52.414;9.784;2023-12-14T15:23:47;6.40;99.90
6252;DHT22;3159;52.414;9.784;2023-12-14T15:26:16;6.10;99.90
6252;DHT22;3159;52.414;9.784;2023-12-14T15:28:42;6.30;99.90
6252;DHT22;3159;52.414;9.784;2023-12-14T15:31:09;6.10;99.90
6252;DHT22;3159;52.414;9.784;2023-12-14T15:33:37;6.20;99.90
6252;DHT22;3159;52.414;9.784;2023-12-14T15:36:04;6.30;99.90
6252;DHT22;3159;52.414;9.784;2023-12-14T15:38:31;6.30;99.90
6252;DHT22;3159;52.414;9.784;2023-12-14T15:40:58;6.40;99.90
6252;DHT22;3159;52.414;9.784;2023-12-14T15:43:26;6.40;99.90
6252;DHT22;3159;52.414;9.784;2023-12-14T15:45:53;6.30;99.90
6252;DHT22;3159;52.414;9.784;2023-12-14T15:48:20;6.30;99.90
6252;DHT22;3159;52.414;9.784;2023-12-14T15:50:47;6.30;99.90
6252;DHT22;3159;52.414;9.784;2023-12-14T15:53:14;6.40;99.90
6252;DHT22;3159;52.414;9.784;2023-12-14T15:55:41;6.40;99.90
6252;DHT22;3159;52.414;9.784;2023-12-14T15:58:08;6.50;99.90
6252;DHT22;3159;52.414;9.784;2023-12-14T16:00:38;6.50;99.90
6252;DHT22;3159;52.414;9.784;2023-12-14T16:03:05;6.50;99.90
6252;DHT22;3159;52.414;9.784;2023-12-14T16:05:33;6.60;99.90
6252;DHT22;3159;52.414;9.784;2023-12-14T16:08:00;6.70;99.90
6252;DHT22;3159;52.414;9.784;2023-12-14T16:10:27;6.60;99.90
6252;DHT22;3159;52.414;9.784;2023-12-14T16:12:54;6.60;99.90
6252;DHT22;3159;52.414;9.784;2023-12-14T16:15:21;6.60;99.90
6252;DHT22;3159;52.414;9.784;2023-12-14T16:17:49;6.60;99.90